Time;durP1;ratioP1;P1;durP2;ratioP2;P2;SDS_P1;SDS_P2;PMS_P1;PMS_P2;Temp;Humidity;BMP_temperature;BMP_pressure;BME280_temperature;BME280_humidity;BME280_pressure;Samples;Min_cycle;Max_cycle;Signal;HPM_P1;HPM_P2
2023/03/13 00:01:52;;;;;;;19.33;7.57;;;7.70;69.60;;;;;;5066327;28;20033;-64
2023/03/13 00:04:18;;;;;;;16.45;6.80;;;7.60;69.60;;;;;;5064421;28;20072;-64
2023/03/13 00:06:44;;;;;;;20.90;7.13;;;7.60;69.50;;;;;;5064884;28;20028;-63
2023/03/13 00:09:12;;;;;;;20.65;6.57;;;7.60;69.30;;;;;;5054340;28;20056;-64
2023/03/13 00:11:38;;;;;;;12.88;5.50;;;7.60;69.40;;;;;;5057506;28;20029;-64
2023/03/13 00:14:05;;;;;;;9.88;4.70;;;7.60;70.10;;;;;;5072410;28;20121;-64
2023/03/13 00:16:34;;;;;;;8.70;4.63;;;7.50;69.30;;;;;;5061274;28;20027;-64
2023/03/13 00:19:00;;;;;;;15.10;4.90;;;7.50;69.30;;;;;;5067742;28;20061;-64
2023/03/13 00:21:28;;;;;;;12.80;3.50;;;7.50;69.40;;;;;;5063139;28;20040;-64
2023/03/13 00:23:54;;;;;;;15.05;4.20;;;7.40;69.40;;;;;;5065532;28;20088;-63
2023/03/13 00:26:22;;;;;;;12.50;4.50;;;7.50;69.60;;;;;;5059178;28;20119;-65
2023/03/13 00:28:49;;;;;;;11.85;3.65;;;7.40;70.40;;;;;;5072858;28;20063;-64
2023/03/13 00:31:26;;;;;;;7.95;3.47;;;7.40;69.60;;;;;;5064465;28;20025;-63
2023/03/13 00:33:56;;;;;;;10.38;2.95;;;7.40;69.70;;;;;;5070620;28;20048;-64
2023/03/13 00:36:33;;;;;;;10.27;2.90;;;7.40;69.60;;;;;;5065011;28;20383;-64
2023/03/13 00:38:59;;;;;;;7.30;3.40;;;7.40;69.40;;;;;;5058367;28;20101;-64
2023/03/13 00:41:27;;;;;;;8.40;3.05;;;7.40;69.40;;;;;;4978332;28;20017;-66
2023/03/13 00:43:54;;;;;;;9.10;3.20;;;7.30;69.30;;;;;;5071339;28;20036;-64
2023/03/13 00:46:22;;;;;;;6.28;3.08;;;7.30;69.30;;;;;;5059627;28;20100;-64
2023/03/13 00:48:48;;;;;;;8.52;2.92;;;7.30;69.30;;;;;;5054253;28;20036;-64
2023/03/13 00:51:16;;;;;;;9.70;2.90;;;7.30;69.30;;;;;;5067458;28;20028;-64
2023/03/13 00:53:42;;;;;;;6.15;2.53;;;7.20;69.30;;;;;;5066401;28;20025;-64
2023/03/13 00:56:10;;;;;;;9.48;3.35;;;7.20;69.30;;;;;;5073777;28;20055;-64
2023/03/13 00:58:38;;;;;;;7.28;2.72;;;7.20;69.40;;;;;;5069908;28;20079;-64
2023/03/13 01:01:12;;;;;;;8.95;2.63;;;7.20;69.50;;;;;;5064466;28;20095;-64
2023/03/13 01:03:39;;;;;;;9.50;2.72;;;7.20;69.70;;;;;;5072948;28;20036;-63
2023/03/13 01:06:08;;;;;;;9.48;2.90;;;7.20;69.50;;;;;;5073385;28;20912;-63
2023/03/13 01:08:34;;;;;;;8.20;2.75;;;7.10;69.50;;;;;;5057460;28;20017;-64
2023/03/13 01:11:14;;;;;;;5.78;2.20;;;7.10;69.60;;;;;;5066898;28;20032;-64
2023/03/13 01:13:41;;;;;;;5.40;2.45;;;7.10;69.90;;;;;;5063899;28;20025;-64
2023/03/13 01:16:08;;;;;;;10.07;2.78;;;7.10;69.70;;;;;;5061291;28;20033;-63
2023/03/13 01:18:35;;;;;;;6.30;2.63;;;7.10;69.70;;;;;;5067202;28;20017;-63
2023/03/13 01:21:01;;;;;;;7.70;2.78;;;7.10;69.80;;;;;;5062895;28;20460;-64
2023/03/13 01:23:27;;;;;;;7.15;2.20;;;7.10;69.70;;;;;;5065467;28;20021;-63
2023/03/13 01:25:54;;;;;;;6.80;2.65;;;7.10;69.80;;;;;;5062671;28;20037;-62
2023/03/13 01:28:21;;;;;;;6.68;2.20;;;7.10;70.00;;;;;;5074477;28;20047;-63
2023/03/13 01:30:46;;;;;;;7.10;2.50;;;7.10;70.00;;;;;;5061550;28;20081;-64
2023/03/13 01:33:12;;;;;;;7.32;2.22;;;7.10;70.00;;;;;;5057780;28;20060;-64
2023/03/13 01:35:38;;;;;;;11.00;2.72;;;7.10;70.00;;;;;;5063274;28;20031;-64
2023/03/13 01:38:04;;;;;;;7.88;2.58;;;7.10;70.00;;;;;;5063072;28;20495;-63
2023/03/13 01:40:29;;;;;;;7.70;2.78;;;7.10;70.10;;;;;;5065242;28;20047;-63
2023/03/13 01:42:58;;;;;;;7.50;2.30;;;7.00;70.10;;;;;;5069050;28;20020;-63
2023/03/13 01:45:57;;;;;;;7.45;2.45;;;7.00;70.10;;;;;;5063502;28;20021;-63
2023/03/13 01:48:59;;;;;;;4.78;2.15;;;7.00;70.70;;;;;;5053543;28;20052;-63
2023/03/13 01:51:30;;;;;;;5.18;2.30;;;7.00;70.70;;;;;;5054329;28;20021;-62
2023/03/13 01:54:20;;;;;;;5.82;1.95;;;7.00;70.00;;;;;;5053349;28;20025;-64
2023/03/13 01:57:12;;;;;;;6.50;2.30;;;7.00;70.30;;;;;;5062304;28;20137;-62
2023/03/13 01:59:43;;;;;;;8.18;2.65;;;7.00;70.30;;;;;;5058221;28;20067;-64
2023/03/13 02:02:08;;;;;;;7.70;2.65;;;7.00;70.40;;;;;;5058456;28;20028;-64
2023/03/13 02:04:38;;;;;;;5.35;1.85;;;7.10;70.40;;;;;;5060066;28;20025;-63
2023/03/13 02:07:09;;;;;;;6.55;2.33;;;7.10;70.50;;;;;;5057538;28;20044;-64
2023/03/13 02:09:37;;;;;;;7.45;2.47;;;7.10;70.60;;;;;;5068173;28;20025;-64
2023/03/13 02:12:28;;;;;;;11.13;2.58;;;7.10;70.50;;;;;;5062755;28;20079;-64
2023/03/13 02:14:56;;;;;;;10.80;2.70;;;7.10;71.20;;;;;;5059096;28;20078;-64
2023/03/13 02:17:23;;;;;;;11.98;2.60;;;7.10;70.50;;;;;;5061794;28;20025;-65
2023/03/13 02:19:52;;;;;;;6.97;2.70;;;7.10;70.50;;;;;;5053070;28;20048;-64
2023/03/13 02:22:21;;;;;;;7.57;2.40;;;7.10;70.60;;;;;;5067998;28;20096;-65
2023/03/13 02:25:00;;;;;;;8.23;2.40;;;7.10;70.70;;;;;;5065704;28;20104;-64
2023/03/13 02:27:25;;;;;;;7.45;2.70;;;7.10;70.70;;;;;;5074523;28;20032;-64
2023/03/13 02:29:52;;;;;;;4.78;2.38;;;7.10;70.60;;;;;;5062291;28;20037;-64
2023/03/13 02:32:18;;;;;;;7.00;2.30;;;7.10;70.60;;;;;;5054441;28;20032;-64
2023/03/13 02:34:47;;;;;;;4.85;2.25;;;7.10;70.60;;;;;;5057192;28;20025;-64
2023/03/13 02:37:14;;;;;;;4.68;2.22;;;7.10;70.70;;;;;;5070208;28;20119;-64
2023/03/13 02:39:46;;;;;;;8.82;2.67;;;7.20;70.70;;;;;;5060210;28;20064;-64
2023/03/13 02:42:14;;;;;;;7.10;2.17;;;7.10;70.80;;;;;;5073010;28;20017;-64
2023/03/13 02:44:43;;;;;;;5.47;2.30;;;7.20;70.60;;;;;;5068045;28;20021;-64
2023/03/13 02:47:09;;;;;;;7.93;2.20;;;7.10;70.50;;;;;;5071466;28;20017;-64
2023/03/13 02:49:35;;;;;;;7.72;2.45;;;7.10;70.50;;;;;;5063175;28;20035;-64
2023/03/13 02:52:08;;;;;;;6.65;2.30;;;7.10;70.70;;;;;;5060248;28;20029;-64
2023/03/13 02:54:38;;;;;;;8.38;2.97;;;7.10;71.30;;;;;;5056533;28;20036;-63
2023/03/13 02:57:05;;;;;;;6.00;2.47;;;7.10;71.20;;;;;;5067823;28;20031;-63
2023/03/13 02:59:31;;;;;;;7.35;2.30;;;7.10;71.20;;;;;;5063640;28;20033;-64
2023/03/13 03:01:57;;;;;;;9.68;2.17;;;7.10;71.30;;;;;;5071703;28;20020;-64
2023/03/13 03:04:25;;;;;;;11.40;2.50;;;7.10;71.20;;;;;;5063608;28;20090;-63
2023/03/13 03:06:52;;;;;;;7.43;2.25;;;7.10;71.30;;;;;;5065555;28;20066;-64
2023/03/13 03:09:19;;;;;;;9.80;2.75;;;7.10;71.10;;;;;;5061734;28;20032;-63
2023/03/13 03:11:45;;;;;;;7.68;3.00;;;7.10;71.30;;;;;;5057932;28;20039;-64
2023/03/13 03:14:12;;;;;;;5.97;2.40;;;7.10;71.30;;;;;;5063433;28;20021;-65
2023/03/13 03:16:38;;;;;;;7.75;2.67;;;7.10;71.30;;;;;;5066306;28;20036;-63
2023/03/13 03:19:05;;;;;;;7.88;2.50;;;7.10;71.20;;;;;;5055648;28;20041;-64
2023/03/13 03:21:32;;;;;;;6.68;2.55;;;7.10;71.10;;;;;;5071866;28;20551;-64
2023/03/13 03:23:58;;;;;;;5.43;2.53;;;7.10;71.10;;;;;;5067927;28;20629;-64
2023/03/13 03:26:23;;;;;;;10.40;2.80;;;7.10;71.10;;;;;;5070462;28;20036;-64
2023/03/13 03:28:49;;;;;;;6.28;2.45;;;7.10;71.00;;;;;;5076161;28;20036;-64
2023/03/13 03:31:16;;;;;;;6.15;2.58;;;7.00;71.00;;;;;;5075860;28;20025;-64
2023/03/13 03:33:42;;;;;;;3.83;2.40;;;7.10;71.10;;;;;;5057368;28;20056;-62
2023/03/13 03:36:14;;;;;;;7.85;2.90;;;7.10;71.10;;;;;;5066947;28;20017;-63
2023/03/13 03:38:40;;;;;;;8.30;2.80;;;7.10;71.30;;;;;;5069144;28;20029;-65
2023/03/13 03:41:07;;;;;;;5.75;2.50;;;7.10;71.40;;;;;;5080142;28;20018;-64
2023/03/13 03:43:33;;;;;;;9.45;2.78;;;7.10;71.40;;;;;;5064151;28;20036;-63
2023/03/13 03:45:59;;;;;;;7.78;3.03;;;7.10;71.50;;;;;;5051412;28;20515;-63
2023/03/13 03:48:24;;;;;;;6.60;3.10;;;7.20;71.60;;;;;;5065837;28;20013;-64
2023/03/13 03:50:50;;;;;;;7.40;3.28;;;7.20;71.70;;;;;;5067194;28;20025;-64
2023/03/13 03:53:16;;;;;;;7.20;2.60;;;7.20;71.70;;;;;;5067023;28;20028;-64
2023/03/13 03:55:41;;;;;;;6.93;2.53;;;7.20;71.90;;;;;;5054330;28;20043;-64
2023/03/13 03:58:07;;;;;;;5.50;2.60;;;7.20;72.10;;;;;;5073109;28;20080;-63
2023/03/13 04:00:33;;;;;;;8.20;2.67;;;7.30;72.20;;;;;;5059069;28;20048;-63
2023/03/13 04:02:58;;;;;;;7.30;2.80;;;7.30;72.20;;;;;;5063708;28;20033;-63
2023/03/13 04:05:24;;;;;;;8.88;2.92;;;7.30;72.20;;;;;;5068919;28;20017;-63
2023/03/13 04:07:50;;;;;;;10.20;2.95;;;7.30;72.30;;;;;;5066245;28;20029;-63
2023/03/13 04:10:15;;;;;;;8.60;3.38;;;7.40;72.40;;;;;;5071959;28;20092;-63
2023/03/13 04:12:41;;;;;;;8.15;3.25;;;7.40;72.40;;;;;;5062827;28;20037;-63
2023/03/13 04:15:07;;;;;;;5.80;3.00;;;7.40;72.30;;;;;;5067763;28;20043;-63
2023/03/13 04:17:33;;;;;;;9.82;3.05;;;7.40;72.30;;;;;;5056769;28;20050;-63
2023/03/13 04:19:59;;;;;;;6.38;3.33;;;7.50;72.30;;;;;;5060077;28;20046;-64
2023/03/13 04:22:25;;;;;;;7.35;2.60;;;7.50;72.30;;;;;;5059227;28;20057;-63
2023/03/13 04:24:51;;;;;;;4.05;2.38;;;7.60;72.40;;;;;;5050131;28;20037;-63
2023/03/13 04:27:17;;;;;;;7.10;2.70;;;7.60;72.40;;;;;;5068447;28;20032;-63
2023/03/13 04:29:42;;;;;;;8.60;2.95;;;7.60;72.30;;;;;;5065542;28;20128;-62
2023/03/13 04:32:08;;;;;;;8.57;2.60;;;7.60;72.30;;;;;;5060696;28;20051;-63
2023/03/13 04:34:34;;;;;;;6.47;2.53;;;7.60;72.40;;;;;;5067671;28;20055;-64
2023/03/13 04:37:00;;;;;;;7.50;2.85;;;7.60;72.40;;;;;;5068280;28;20021;-63
2023/03/13 04:39:26;;;;;;;6.55;2.28;;;7.60;72.40;;;;;;5073654;28;20078;-63
2023/03/13 04:41:52;;;;;;;8.85;2.97;;;7.70;72.70;;;;;;5060314;28;20035;-63
2023/03/13 04:44:18;;;;;;;9.00;2.38;;;7.70;72.80;;;;;;5065999;28;20036;-63
2023/03/13 04:46:44;;;;;;;8.05;2.10;;;7.70;72.60;;;;;;5072162;28;20025;-63
2023/03/13 04:49:09;;;;;;;10.63;2.60;;;7.70;73.00;;;;;;5066522;28;20072;-63
2023/03/13 04:51:35;;;;;;;8.93;2.45;;;7.80;73.30;;;;;;5063268;28;20028;-63
2023/03/13 04:54:01;;;;;;;7.30;2.15;;;7.80;73.50;;;;;;5075084;28;20029;-64
2023/03/13 04:56:27;;;;;;;5.53;2.42;;;7.80;73.50;;;;;;5060852;28;20115;-63
2023/03/13 04:58:53;;;;;;;6.75;2.38;;;7.90;73.60;;;;;;5061214;28;20033;-63
2023/03/13 05:01:19;;;;;;;8.85;2.95;;;7.90;73.60;;;;;;5064811;28;20086;-64
2023/03/13 05:03:45;;;;;;;7.97;2.30;;;8.00;73.90;;;;;;5078239;28;20052;-63
2023/03/13 05:06:11;;;;;;;6.32;2.40;;;8.00;74.00;;;;;;5065934;28;20525;-63
2023/03/13 05:08:37;;;;;;;5.68;2.08;;;8.10;74.10;;;;;;5066779;28;20033;-63
2023/03/13 05:11:03;;;;;;;8.55;2.38;;;8.10;74.20;;;;;;5069068;28;20032;-64
2023/03/13 05:13:29;;;;;;;9.70;2.35;;;8.20;74.90;;;;;;5070059;28;20071;-63
2023/03/13 05:15:54;;;;;;;7.03;2.30;;;8.30;74.30;;;;;;5070620;28;20036;-64
2023/03/13 05:18:20;;;;;;;7.22;2.08;;;8.30;74.10;;;;;;5064998;28;20021;-64
2023/03/13 05:20:45;;;;;;;6.40;2.90;;;8.40;74.30;;;;;;5069593;28;20033;-63
2023/03/13 05:23:11;;;;;;;3.85;2.17;;;8.40;74.30;;;;;;5065812;28;20029;-64
2023/03/13 05:25:37;;;;;;;7.00;3.42;;;8.50;74.20;;;;;;5069450;28;20025;-63
2023/03/13 05:28:03;;;;;;;7.13;2.60;;;8.50;74.20;;;;;;5066974;28;20024;-64
2023/03/13 05:30:28;;;;;;;9.07;2.40;;;8.60;74.00;;;;;;5060441;28;20108;-63
2023/03/13 05:32:54;;;;;;;9.30;2.90;;;8.60;73.90;;;;;;5051461;28;20060;-63
2023/03/13 05:35:19;;;;;;;8.13;3.08;;;8.70;74.10;;;;;;5069190;28;20056;-64
2023/03/13 05:37:46;;;;;;;7.75;2.60;;;8.80;74.10;;;;;;5067090;28;20041;-63
2023/03/13 05:40:12;;;;;;;6.40;2.60;;;8.80;74.00;;;;;;5068000;28;20025;-64
2023/03/13 05:42:38;;;;;;;7.30;2.17;;;8.80;73.90;;;;;;5063700;28;20446;-64
2023/03/13 05:45:04;;;;;;;5.72;2.30;;;8.90;73.70;;;;;;5063141;28;20088;-64
2023/03/13 05:47:30;;;;;;;9.40;2.60;;;8.90;73.70;;;;;;5067952;28;20052;-63
2023/03/13 05:49:55;;;;;;;4.65;2.33;;;9.00;73.80;;;;;;5064368;28;20029;-63
2023/03/13 05:52:22;;;;;;;8.13;2.67;;;9.00;73.70;;;;;;5072370;28;20055;-64
2023/03/13 05:54:47;;;;;;;8.82;2.40;;;9.10;73.60;;;;;;5067348;28;20013;-64
2023/03/13 05:57:13;;;;;;;5.20;2.25;;;9.10;73.60;;;;;;5067923;28;20031;-64
2023/03/13 05:59:39;;;;;;;7.45;2.50;;;9.10;73.60;;;;;;5073139;28;20041;-63
2023/03/13 06:02:05;;;;;;;4.85;2.63;;;9.20;73.60;;;;;;5070262;28;20020;-64
2023/03/13 06:04:30;;;;;;;6.95;2.55;;;9.20;73.60;;;;;;5062554;28;20055;-63
2023/03/13 06:06:56;;;;;;;11.38;3.08;;;9.20;73.30;;;;;;5065394;28;20047;-64
2023/03/13 06:09:22;;;;;;;10.88;2.53;;;9.30;73.60;;;;;;5059988;28;20021;-64
2023/03/13 06:11:48;;;;;;;7.35;3.40;;;9.30;73.60;;;;;;5061918;28;20049;-63
2023/03/13 06:14:14;;;;;;;6.28;2.75;;;9.30;73.60;;;;;;5062640;28;20047;-63
2023/03/13 06:16:39;;;;;;;6.75;2.92;;;9.30;73.50;;;;;;5068912;28;20490;-63
2023/03/13 06:19:05;;;;;;;7.53;3.30;;;9.40;73.50;;;;;;5072748;28;20579;-61
2023/03/13 06:21:30;;;;;;;7.13;3.00;;;9.40;73.40;;;;;;5065208;28;20028;-63
2023/03/13 06:23:56;;;;;;;6.72;2.75;;;9.40;73.40;;;;;;5059776;28;20044;-64
2023/03/13 06:26:23;;;;;;;10.13;3.40;;;9.40;73.40;;;;;;5069551;28;20021;-63
2023/03/13 06:28:49;;;;;;;7.68;3.20;;;9.50;73.50;;;;;;5065760;28;20022;-64
2023/03/13 06:31:15;;;;;;;8.25;2.78;;;9.50;73.50;;;;;;5071291;28;20028;-64
2023/03/13 06:33:40;;;;;;;5.47;2.95;;;9.50;73.60;;;;;;5063186;28;20096;-63
2023/03/13 06:36:06;;;;;;;5.25;2.15;;;9.50;73.50;;;;;;5062896;28;20078;-64
2023/03/13 06:38:32;;;;;;;7.43;3.33;;;9.60;73.50;;;;;;5072412;28;20539;-63
2023/03/13 06:40:58;;;;;;;7.82;3.13;;;9.60;73.60;;;;;;4963554;28;20043;-64
2023/03/13 06:43:24;;;;;;;8.10;2.80;;;9.70;73.70;;;;;;5068237;28;20028;-64
2023/03/13 06:45:50;;;;;;;12.25;3.53;;;9.70;73.60;;;;;;5070836;28;20032;-63
2023/03/13 06:48:16;;;;;;;5.47;2.85;;;9.70;73.50;;;;;;5065943;28;20033;-63
2023/03/13 06:50:42;;;;;;;5.30;2.67;;;9.80;73.50;;;;;;5064276;28;20035;-64
2023/03/13 06:53:17;;;;;;;7.78;2.70;;;9.80;73.70;;;;;;5054141;28;20040;-64
2023/03/13 06:55:43;;;;;;;6.18;2.47;;;9.80;73.80;;;;;;5067282;28;20077;-63
2023/03/13 06:58:09;;;;;;;5.18;2.17;;;9.80;73.20;;;;;;5059291;28;20120;-63
2023/03/13 07:00:35;;;;;;;9.02;2.47;;;9.90;73.50;;;;;;5063951;28;20057;-64
2023/03/13 07:03:00;;;;;;;4.65;2.03;;;10.00;73.40;;;;;;5070246;28;20543;-63
2023/03/13 07:05:26;;;;;;;10.23;3.72;;;10.00;73.60;;;;;;5060700;28;20033;-64
2023/03/13 07:07:52;;;;;;;8.13;2.60;;;10.10;73.40;;;;;;5061694;28;20029;-64
2023/03/13 07:10:18;;;;;;;4.90;2.30;;;10.20;73.60;;;;;;5069859;28;20063;-63
2023/03/13 07:12:43;;;;;;;4.22;1.63;;;10.30;73.50;;;;;;5072609;28;20029;-62
2023/03/13 07:15:10;;;;;;;3.08;1.33;;;10.40;73.40;;;;;;5065006;28;20032;-63
2023/03/13 07:17:36;;;;;;;6.22;1.85;;;10.50;73.30;;;;;;5058812;28;20032;-63
2023/03/13 07:20:09;;;;;;;3.45;1.73;;;10.50;73.10;;;;;;5067525;28;20048;-63
2023/03/13 07:22:36;;;;;;;4.70;1.77;;;10.60;73.20;;;;;;5062093;28;20054;-64
2023/03/13 07:25:03;;;;;;;4.90;1.30;;;10.70;73.30;;;;;;5068123;28;20048;-64
2023/03/13 07:27:29;;;;;;;3.38;1.40;;;10.80;73.20;;;;;;5062706;28;20052;-64
2023/03/13 07:29:55;;;;;;;7.05;1.55;;;10.90;73.10;;;;;;5067111;28;20028;-64
2023/03/13 07:32:20;;;;;;;2.92;1.40;;;11.10;72.90;;;;;;5062053;28;20025;-64
2023/03/13 07:34:46;;;;;;;3.28;1.30;;;11.20;72.60;;;;;;5060674;28;20040;-64
2023/03/13 07:37:13;;;;;;;3.53;1.25;;;11.30;72.40;;;;;;5070575;28;20032;-64
2023/03/13 07:39:38;;;;;;;2.13;1.20;;;11.40;72.40;;;;;;5061439;28;20037;-64
2023/03/13 07:42:04;;;;;;;5.88;1.40;;;11.50;72.20;;;;;;5067060;28;20024;-64
2023/03/13 07:44:30;;;;;;;2.58;1.13;;;11.60;72.20;;;;;;5057581;28;20032;-64
2023/03/13 07:46:59;;;;;;;3.47;1.40;;;11.70;71.90;;;;;;5066096;28;20047;-64
2023/03/13 07:49:25;;;;;;;2.85;1.20;;;11.80;71.80;;;;;;5061966;28;20032;-63
2023/03/13 07:51:50;;;;;;;2.65;1.10;;;11.80;71.50;;;;;;5061295;28;20111;-63
2023/03/13 07:54:16;;;;;;;2.05;0.88;;;12.00;71.40;;;;;;5066564;28;20076;-63
2023/03/13 07:56:42;;;;;;;1.95;1.10;;;12.00;71.30;;;;;;5064966;28;20029;-63
2023/03/13 07:59:08;;;;;;;1.45;1.08;;;12.00;71.10;;;;;;5053104;28;20104;-64
2023/03/13 08:01:33;;;;;;;7.57;1.15;;;12.10;71.70;;;;;;5068694;28;20057;-63
2023/03/13 08:04:03;;;;;;;3.40;1.00;;;12.20;70.90;;;;;;5060870;28;20061;-64
2023/03/13 08:06:34;;;;;;;2.70;1.27;;;12.20;70.80;;;;;;5063271;28;20096;-64
2023/03/13 08:09:00;;;;;;;3.92;1.35;;;12.20;70.70;;;;;;5058933;28;20025;-67
2023/03/13 08:11:27;;;;;;;1.70;1.08;;;12.30;70.60;;;;;;5054288;28;20035;-63
2023/03/13 08:13:54;;;;;;;3.60;1.30;;;12.30;70.50;;;;;;5059183;28;20051;-64
2023/03/13 08:16:23;;;;;;;1.70;1.00;;;12.40;70.50;;;;;;5052542;28;20033;-64
2023/03/13 08:18:51;;;;;;;2.75;1.30;;;12.40;70.60;;;;;;5065417;28;20032;-65
2023/03/13 08:21:23;;;;;;;1.98;1.10;;;12.50;70.50;;;;;;5061617;28;20044;-65
2023/03/13 08:23:53;;;;;;;2.63;1.30;;;12.60;70.60;;;;;;5066226;28;20020;-65
2023/03/13 08:26:20;;;;;;;3.83;1.45;;;12.60;70.50;;;;;;5058293;28;20032;-65
2023/03/13 08:28:50;;;;;;;2.13;1.23;;;12.70;70.50;;;;;;5061551;28;20093;-64
2023/03/13 08:31:28;;;;;;;2.55;1.63;;;12.70;70.40;;;;;;5056346;28;20032;-64
2023/03/13 08:33:54;;;;;;;5.10;2.15;;;12.80;70.10;;;;;;5064249;28;20074;-64
2023/03/13 08:36:27;;;;;;;4.07;1.73;;;12.90;70.00;;;;;;5058574;28;20029;-64
2023/03/13 08:38:54;;;;;;;2.20;1.67;;;13.00;70.00;;;;;;5077116;28;20029;-63
2023/03/13 08:41:25;;;;;;;6.20;2.00;;;13.00;69.80;;;;;;5064492;28;20029;-64
2023/03/13 08:43:52;;;;;;;2.17;1.92;;;13.10;69.70;;;;;;5068052;28;20031;-64
2023/03/13 08:46:18;;;;;;;5.25;1.92;;;13.20;69.70;;;;;;5071807;28;20486;-65
2023/03/13 08:48:43;;;;;;;4.80;1.90;;;13.20;69.60;;;;;;5069526;28;20029;-64
2023/03/13 08:51:12;;;;;;;3.80;1.77;;;13.30;69.50;;;;;;5066445;28;20025;-64
2023/03/13 08:53:39;;;;;;;3.90;1.55;;;13.40;69.40;;;;;;5066204;28;20067;-64
2023/03/13 08:56:05;;;;;;;2.60;1.20;;;13.40;69.30;;;;;;5071621;28;20068;-64
2023/03/13 08:58:31;;;;;;;5.80;1.48;;;13.50;69.30;;;;;;5072766;28;20028;-64
2023/03/13 09:01:05;;;;;;;2.78;1.50;;;13.60;69.10;;;;;;5067852;28;20037;-64
2023/03/13 09:03:32;;;;;;;2.55;1.38;;;13.70;68.90;;;;;;5068166;28;20024;-64
2023/03/13 09:06:01;;;;;;;4.57;1.70;;;13.80;68.90;;;;;;5067105;28;20040;-64
2023/03/13 09:08:28;;;;;;;4.38;1.20;;;13.90;68.70;;;;;;5069079;28;20032;-64
2023/03/13 09:10:58;;;;;;;3.85;1.48;;;14.00;68.80;;;;;;5065789;28;20044;-64
2023/03/13 09:13:25;;;;;;;1.80;1.10;;;14.10;68.60;;;;;;5076402;28;20020;-64
2023/03/13 09:16:02;;;;;;;1.70;1.00;;;14.20;68.70;;;;;;5063300;28;20488;-64
2023/03/13 09:18:28;;;;;;;4.03;1.02;;;14.40;68.40;;;;;;5070787;28;20029;-64
2023/03/13 09:20:54;;;;;;;1.73;1.13;;;14.60;68.40;;;;;;5066017;28;20438;-63
2023/03/13 09:23:21;;;;;;;2.83;1.05;;;14.70;68.00;;;;;;5061921;28;20085;-63
2023/03/13 09:25:48;;;;;;;3.88;1.30;;;14.80;67.90;;;;;;5070447;28;20103;-63
2023/03/13 09:28:13;;;;;;;2.50;1.10;;;15.00;67.80;;;;;;5069114;28;20033;-63
2023/03/13 09:30:39;;;;;;;2.55;1.15;;;15.10;67.40;;;;;;5063383;28;20051;-62
2023/03/13 09:33:05;;;;;;;3.13;1.15;;;15.30;67.00;;;;;;5066881;28;20110;-64
2023/03/13 09:35:30;;;;;;;2.13;1.17;;;15.40;66.20;;;;;;5068719;28;20091;-63
2023/03/13 09:37:56;;;;;;;3.60;1.50;;;15.60;66.20;;;;;;5062551;28;20036;-64
2023/03/13 09:40:24;;;;;;;1.55;0.98;;;15.70;65.90;;;;;;5056718;28;20044;-64
2023/03/13 09:42:59;;;;;;;2.47;1.30;;;15.80;65.50;;;;;;5064175;28;20021;-64
2023/03/13 09:45:32;;;;;;;1.10;1.00;;;15.90;64.60;;;;;;5059695;28;20033;-63
2023/03/13 09:48:06;;;;;;;4.35;1.10;;;16.00;64.60;;;;;;5058418;28;20025;-63
2023/03/13 09:50:35;;;;;;;2.15;1.27;;;16.10;64.20;;;;;;5057230;28;20020;-63
2023/03/13 09:53:11;;;;;;;2.00;1.10;;;16.10;64.10;;;;;;5061958;28;20071;-63
2023/03/13 09:55:40;;;;;;;1.27;0.82;;;16.20;63.80;;;;;;5061500;28;20040;-64
2023/03/13 09:58:27;;;;;;;1.63;0.88;;;16.20;63.70;;;;;;5067379;28;20027;-64
2023/03/13 10:01:15;;;;;;;5.13;1.10;;;16.20;62.50;;;;;;5065961;28;20037;-63
2023/03/13 10:03:56;;;;;;;2.03;1.10;;;16.20;62.60;;;;;;5057778;28;20124;-63
2023/03/13 10:06:38;;;;;;;1.60;0.90;;;16.20;62.70;;;;;;5053853;28;20025;-63
2023/03/13 10:09:16;;;;;;;5.05;1.00;;;16.20;63.40;;;;;;5063414;28;20033;-63
2023/03/13 10:12:04;;;;;;;1.83;1.10;;;16.30;62.60;;;;;;5066258;28;20032;-64
2023/03/13 10:14:54;;;;;;;1.48;0.95;;;16.40;63.00;;;;;;5064054;28;20083;-63
2023/03/13 10:17:32;;;;;;;1.33;1.02;;;16.50;63.60;;;;;;5057508;28;20025;-63
2023/03/13 10:20:19;;;;;;;4.80;1.27;;;16.70;63.20;;;;;;5056271;28;20033;-65
2023/03/13 10:22:51;;;;;;;3.08;0.90;;;16.90;63.50;;;;;;5060734;28;20032;-64
2023/03/13 10:25:34;;;;;;;3.65;1.23;;;17.10;63.10;;;;;;5068719;28;20474;-65
2023/03/13 10:28:01;;;;;;;1.45;0.80;;;17.40;62.20;;;;;;5061300;28;20037;-64
2023/03/13 10:30:29;;;;;;;9.32;1.27;;;17.60;62.70;;;;;;5062667;28;20053;-64
2023/03/13 10:33:07;;;;;;;2.50;1.00;;;17.70;61.90;;;;;;5065357;28;20052;-64
2023/03/13 10:35:39;;;;;;;2.70;1.00;;;17.90;60.90;;;;;;5064417;28;20036;-64
2023/03/13 10:38:08;;;;;;;5.03;0.90;;;18.10;61.50;;;;;;5062698;28;20032;-64
2023/03/13 10:40:35;;;;;;;2.08;0.80;;;18.30;61.20;;;;;;5068799;28;20044;-63
2023/03/13 10:43:19;;;;;;;4.72;1.42;;;18.40;60.60;;;;;;5068477;28;20049;-65
2023/03/13 10:45:46;;;;;;;1.55;1.00;;;18.60;59.80;;;;;;5061446;28;20036;-64
2023/03/13 10:48:14;;;;;;;2.28;1.15;;;18.70;59.60;;;;;;5056299;28;20029;-63
2023/03/13 10:50:43;;;;;;;3.03;0.90;;;18.70;59.20;;;;;;5056383;28;20037;-64
2023/03/13 10:53:29;;;;;;;1.73;0.73;;;18.80;58.90;;;;;;5058215;28;20116;-64
2023/03/13 10:56:10;;;;;;;3.45;0.90;;;18.80;58.40;;;;;;5059128;28;20041;-64
2023/03/13 10:58:46;;;;;;;1.67;0.80;;;18.80;58.70;;;;;;5065999;28;20414;-63
2023/03/13 11:01:23;;;;;;;2.47;0.88;;;18.70;58.00;;;;;;5061781;28;20369;-64
2023/03/13 11:03:51;;;;;;;2.08;0.85;;;18.70;58.30;;;;;;5058443;28;20029;-64
2023/03/13 11:06:34;;;;;;;7.03;1.25;;;18.70;58.50;;;;;;5056601;28;20102;-64
2023/03/13 11:09:04;;;;;;;4.43;0.75;;;18.70;57.70;;;;;;5061897;28;20029;-64
2023/03/13 11:11:41;;;;;;;4.53;1.00;;;18.60;58.40;;;;;;5053983;28;20049;-64
2023/03/13 11:14:12;;;;;;;2.33;0.68;;;18.70;58.50;;;;;;5074903;28;20036;-63
2023/03/13 11:16:53;;;;;;;2.20;1.00;;;18.60;58.00;;;;;;5056267;28;20031;-64
2023/03/13 11:19:29;;;;;;;1.58;0.80;;;18.70;57.60;;;;;;5081558;28;20059;-64
2023/03/13 11:22:14;;;;;;;3.22;1.00;;;18.70;56.90;;;;;;5070054;28;20024;-63
2023/03/13 11:24:58;;;;;;;;;;;18.80;58.00;;;;;;5066089;28;20114;-63
2023/03/13 11:27:47;;;;;;;1.23;0.80;;;18.90;58.40;;;;;;5063852;28;19992;-63
2023/03/13 11:30:34;;;;;;;4.88;1.20;;;19.00;57.60;;;;;;5063236;28;20047;-64
2023/03/13 11:33:36;;;;;;;3.63;1.48;;;19.10;55.10;;;;;;5062263;28;20049;-63
2023/03/13 11:36:27;;;;;;;5.78;1.65;;;19.20;54.70;;;;;;5028133;28;20045;-64
2023/03/13 11:39:01;;;;;;;3.45;1.00;;;19.30;55.00;;;;;;5017781;28;20133;-63
2023/03/13 11:41:36;;;;;;;7.40;1.20;;;19.40;55.40;;;;;;4972392;28;20492;-64
2023/03/13 11:44:28;;;;;;;2.17;1.08;;;19.60;55.60;;;;;;5025758;28;20037;-64
2023/03/13 11:47:21;;;;;;;1.70;1.05;;;19.70;54.50;;;;;;5021159;28;20037;-64
2023/03/13 11:50:01;;;;;;;3.42;0.90;;;19.80;54.80;;;;;;5025470;28;20026;-64
2023/03/13 11:52:44;;;;;;;5.43;1.08;;;20.00;54.20;;;;;;5026006;28;20086;-63
2023/03/13 11:55:27;;;;;;;7.03;1.03;;;20.10;53.60;;;;;;5014447;28;20045;-64
2023/03/13 11:58:15;;;;;;;1.67;1.00;;;20.20;54.00;;;;;;5020326;28;20086;-63
2023/03/13 12:01:07;;;;;;;2.83;1.20;;;20.40;53.80;;;;;;5003840;28;20053;-64
2023/03/13 12:03:43;;;;;;;2.83;0.90;;;20.50;53.00;;;;;;5022257;28;20054;-66
2023/03/13 12:06:23;;;;;;;3.33;1.00;;;20.70;53.30;;;;;;5034357;28;20203;-65
2023/03/13 12:08:54;;;;;;;7.00;0.95;;;20.90;51.30;;;;;;5025172;28;20052;-64
2023/03/13 12:11:30;;;;;;;2.63;0.93;;;21.00;52.60;;;;;;5030685;28;20080;-63
2023/03/13 12:14:03;;;;;;;3.40;0.80;;;21.20;49.80;;;;;;5066290;28;20537;-65
2023/03/13 12:16:46;;;;;;;1.95;0.90;;;21.20;50.30;;;;;;5069154;28;20033;-64
2023/03/13 12:19:20;;;;;;;3.67;1.20;;;21.20;50.10;;;;;;5067307;28;20124;-65
2023/03/13 12:21:55;;;;;;;1.70;0.80;;;21.30;50.30;;;;;;5060968;28;20021;-66
2023/03/13 12:24:37;;;;;;;4.47;1.10;;;21.40;50.50;;;;;;5059953;28;21041;-64
2023/03/13 12:27:25;;;;;;;6.13;1.15;;;21.40;49.10;;;;;;5064950;28;20021;-65
2023/03/13 12:29:58;;;;;;;1.52;0.80;;;21.40;49.70;;;;;;5058739;28;20049;-64
2023/03/13 12:32:36;;;;;;;1.98;0.90;;;21.60;49.70;;;;;;5067539;28;20492;-64
2023/03/13 12:35:22;;;;;;;1.98;0.85;;;21.70;50.20;;;;;;5068159;28;20033;-64
2023/03/13 12:38:21;;;;;;;9.02;1.15;;;21.80;48.80;;;;;;5058250;28;20028;-64
2023/03/13 12:41:24;;;;;;;2.05;0.90;;;21.80;49.30;;;;;;5065897;28;20045;-64
2023/03/13 12:43:52;;;;;;;3.13;0.85;;;22.00;49.40;;;;;;5066822;28;20025;-64
2023/03/13 12:46:23;;;;;;;3.13;1.15;;;22.00;50.00;;;;;;5069843;28;20052;-64
2023/03/13 12:49:17;;;;;;;1.13;0.80;;;22.10;49.60;;;;;;5064872;28;20110;-65
2023/03/13 12:52:04;;;;;;;4.03;1.30;;;22.10;49.40;;;;;;5063506;28;20104;-65
2023/03/13 12:54:50;;;;;;;6.10;0.80;;;22.20;49.20;;;;;;5062088;28;20025;-64
2023/03/13 12:57:42;;;;;;;2.63;0.98;;;22.30;49.00;;;;;;5068533;28;20021;-63
2023/03/13 13:00:22;;;;;;;2.88;1.27;;;22.40;48.70;;;;;;5060467;28;20033;-63
2023/03/13 13:03:15;;;;;;;3.22;0.90;;;22.50;48.70;;;;;;5061359;28;20380;-65
2023/03/13 13:06:17;;;;;;;2.53;0.80;;;22.60;47.30;;;;;;5060561;28;20085;-64
2023/03/13 13:08:48;;;;;;;2.22;0.80;;;22.70;47.10;;;;;;5064330;28;20072;-65
2023/03/13 13:11:32;;;;;;;2.50;1.02;;;22.80;48.50;;;;;;5064832;28;20159;-65